Time;durP1;ratioP1;P1;durP2;ratioP2;P2;SDS_P1;SDS_P2;PMS_P1;PMS_P2;Temp;Humidity;BMP_temperature;BMP_pressure;BME280_temperature;BME280_humidity;BME280_pressure;Samples;Min_cycle;Max_cycle;Signal;HPM_P1;HPM_P2
2022/07/13 00:02:22;;;;;;;10.43;3.83;;;;;;;13.77;100.00;97051.75;5073508;28;20454;-72
2022/07/13 00:04:49;;;;;;;7.50;3.33;;;;;;;13.90;100.00;97059.44;5066696;28;20953;-72
2022/07/13 00:07:16;;;;;;;19.70;5.67;;;;;;;14.16;100.00;97072.44;5059887;28;20912;-72
2022/07/13 00:09:43;;;;;;;11.43;4.90;;;;;;;14.07;100.00;97065.66;5071296;28;20515;-72
2022/07/13 00:12:10;;;;;;;15.10;7.20;;;;;;;13.86;100.00;97042.56;5069758;28;20846;-72
2022/07/13 00:14:36;;;;;;;22.77;6.30;;;;;;;13.77;100.00;97049.88;5071111;28;20424;-72
2022/07/13 00:17:03;;;;;;;24.20;7.47;;;;;;;13.74;100.00;97063.81;5073388;28;20484;-72
2022/07/13 00:19:30;;;;;;;31.27;7.40;;;;;;;13.49;100.00;97064.84;5093572;28;20486;-72
2022/07/13 00:21:57;;;;;;;24.67;5.63;;;;;;;13.72;100.00;97066.03;5077134;28;20464;-72
2022/07/13 00:24:23;;;;;;;33.47;7.67;;;;;;;13.64;100.00;97063.47;5061176;28;20432;-72
2022/07/13 00:26:50;;;;;;;27.73;6.20;;;;;;;13.56;100.00;97039.28;5077057;28;20462;-72
2022/07/13 00:29:17;;;;;;;26.07;6.13;;;;;;;13.59;100.00;97035.97;5078276;28;20424;-72
2022/07/13 00:31:46;;;;;;;26.80;6.23;;;;;;;13.57;100.00;97048.03;5077949;28;20486;-72
2022/07/13 00:34:13;;;;;;;20.47;6.60;;;;;;;12.94;100.00;97037.44;5077036;28;20466;-72
2022/07/13 00:36:40;;;;;;;16.57;5.60;;;;;;;12.96;100.00;97021.97;5060477;28;20436;-72
2022/07/13 00:39:07;;;;;;;31.03;6.57;;;;;;;13.22;100.00;97061.63;5077065;28;20479;-72
2022/07/13 00:41:34;;;;;;;12.73;4.53;;;;;;;13.31;100.00;97035.00;5071223;28;20456;-72
2022/07/13 00:44:08;;;;;;;14.07;5.10;;;;;;;13.29;100.00;97059.22;5069922;28;20439;-72
2022/07/13 00:46:40;;;;;;;20.83;6.27;;;;;;;13.14;100.00;97064.31;5069539;28;20436;-72
2022/07/13 00:49:07;;;;;;;26.10;5.43;;;;;;;13.04;100.00;97054.84;5069653;28;20436;-72
2022/07/13 00:51:34;;;;;;;23.70;5.23;;;;;;;12.82;100.00;97024.13;5069410;28;20499;-72
2022/07/13 00:54:01;;;;;;;11.37;5.20;;;;;;;12.82;100.00;97021.47;5054998;28;20987;-72
2022/07/13 00:56:28;;;;;;;16.97;5.30;;;;;;;12.97;100.00;97049.31;5086851;28;20438;-72
2022/07/13 00:58:59;;;;;;;4.97;4.20;;;;;;;12.89;100.00;97029.66;5089537;28;20458;-72
2022/07/13 01:01:26;;;;;;;13.97;4.33;;;;;;;12.68;100.00;97021.69;5089602;28;20481;-72
2022/07/13 01:03:53;;;;;;;11.20;5.27;;;;;;;12.90;100.00;97055.09;5073114;28;20832;-72
2022/07/13 01:06:20;;;;;;;6.03;2.70;;;;;;;12.79;100.00;97053.16;5091223;28;20435;-72
2022/07/13 01:08:47;;;;;;;3.20;2.90;;;;;;;12.62;100.00;97036.25;5094908;28;20812;-72
2022/07/13 01:11:15;;;;;;;3.20;2.93;;;;;;;12.73;100.00;97040.09;5076914;28;21024;-72
2022/07/13 01:13:43;;;;;;;7.27;3.37;;;;;;;12.77;100.00;97042.88;5093475;28;20493;-72
2022/07/13 01:16:10;;;;;;;4.30;2.83;;;;;;;12.68;100.00;97050.09;5093471;28;20448;-72
2022/07/13 01:18:37;;;;;;;14.00;3.40;;;;;;;12.69;100.00;97020.59;5094866;28;20443;-72
2022/07/13 01:21:05;;;;;;;5.60;3.40;;;;;;;12.67;100.00;97029.97;5094891;28;20420;-72
2022/07/13 01:23:32;;;;;;;3.90;2.60;;;;;;;12.88;100.00;97051.22;5093279;28;20463;-72
2022/07/13 01:26:00;;;;;;;5.23;3.30;;;;;;;12.73;100.00;97039.31;5094830;28;20477;-72
2022/07/13 01:28:27;;;;;;;2.83;2.60;;;;;;;12.18;100.00;97005.75;5093220;28;20504;-72
2022/07/13 01:30:54;;;;;;;4.20;3.27;;;;;;;12.03;100.00;97017.66;5093350;28;20815;-72
2022/07/13 01:33:21;;;;;;;4.47;2.33;;;;;;;12.04;100.00;97031.69;5093254;28;20436;-72
2022/07/13 01:35:48;;;;;;;4.60;2.70;;;;;;;11.96;100.00;97016.59;5093146;28;20444;-72
2022/07/13 01:38:16;;;;;;;5.23;3.00;;;;;;;11.99;100.00;97018.59;5093012;28;20462;-72
2022/07/13 01:40:43;;;;;;;10.93;4.10;;;;;;;11.98;100.00;97017.84;5093231;28;20761;-72
2022/07/13 01:43:10;;;;;;;2.73;2.33;;;;;;;12.37;100.00;97035.28;5076228;28;20493;-72
2022/07/13 01:45:38;;;;;;;4.13;3.20;;;;;;;12.32;100.00;97037.34;5076234;28;20427;-72
2022/07/13 01:48:05;;;;;;;3.40;2.63;;;;;;;12.34;100.00;97019.25;5076669;28;20448;-72
2022/07/13 01:50:32;;;;;;;5.63;3.20;;;;;;;12.52;100.00;97047.22;5089594;28;20471;-72
2022/07/13 01:52:59;;;;;;;6.57;3.57;;;;;;;12.54;100.00;97044.25;5068990;28;20465;-72
2022/07/13 01:55:27;;;;;;;4.57;3.37;;;;;;;12.51;100.00;97016.50;5056477;28;20809;-72
2022/07/13 01:57:59;;;;;;;6.10;5.50;;;;;;;12.49;100.00;97031.19;5072569;28;20453;-72
2022/07/13 02:00:27;;;;;;;10.57;3.20;;;;;;;12.20;100.00;97034.59;5070448;28;20507;-72
2022/07/13 02:02:54;;;;;;;9.70;3.80;;;;;;;12.22;100.00;97027.88;5055992;28;20428;-72
2022/07/13 02:05:26;;;;;;;6.23;2.97;;;;;;;12.10;100.00;96994.09;5072343;28;21043;-72
2022/07/13 02:07:54;;;;;;;5.17;2.80;;;;;;;12.10;100.00;96990.66;5072317;28;20465;-72
2022/07/13 02:10:34;;;;;;;5.60;3.10;;;;;;;12.13;100.00;97035.84;5072301;28;20435;-72
2022/07/13 02:13:08;;;;;;;6.13;3.70;;;;;;;11.88;100.00;97006.78;5072320;28;20891;-72
2022/07/13 02:15:35;;;;;;;4.07;2.90;;;;;;;12.19;100.00;97038.34;5055634;28;20444;-72
2022/07/13 02:18:04;;;;;;;5.60;3.37;;;;;;;12.02;100.00;97005.53;5088329;28;20534;-72
2022/07/13 02:20:32;;;;;;;6.90;3.00;;;;;;;12.05;100.00;97034.03;5072057;28;20440;-72
2022/07/13 02:22:59;;;;;;;3.00;2.80;;;;;;;12.20;100.00;97031.94;5072055;28;20478;-72
2022/07/13 02:25:26;;;;;;;11.43;3.67;;;;;;;12.37;100.00;97018.59;5088788;28;20424;-72
2022/07/13 02:27:53;;;;;;;8.03;3.10;;;;;;;12.51;100.00;97027.09;5071972;28;20467;-71
2022/07/13 02:30:22;;;;;;;10.80;3.60;;;;;;;12.16;100.00;96989.41;5072079;28;20509;-71
2022/07/13 02:32:54;;;;;;;6.07;2.83;;;;;;;11.97;100.00;96981.81;5055965;28;20892;-71
2022/07/13 02:35:21;;;;;;;6.30;3.60;;;;;;;12.41;100.00;97024.81;5055483;28;20433;-72
2022/07/13 02:37:48;;;;;;;12.10;3.10;;;;;;;12.35;100.00;97021.56;5071754;28;20510;-72
2022/07/13 02:40:15;;;;;;;6.90;3.37;;;;;;;12.16;100.00;97023.09;5055296;28;20470;-72
2022/07/13 02:42:46;;;;;;;7.17;3.67;;;;;;;12.00;100.00;97025.47;5071740;28;20483;-72
2022/07/13 02:45:13;;;;;;;10.80;3.53;;;;;;;12.18;100.00;97013.72;5054984;28;20447;-72
2022/07/13 02:47:40;;;;;;;7.27;3.67;;;;;;;12.20;100.00;97027.41;5088399;28;20547;-72
2022/07/13 02:50:07;;;;;;;6.47;3.63;;;;;;;12.14;100.00;97026.03;5055025;28;20441;-72
2022/07/13 02:52:36;;;;;;;7.77;3.50;;;;;;;11.86;100.00;97030.97;5085156;28;20469;-72
2022/07/13 02:55:03;;;;;;;5.53;3.27;;;;;;;11.47;100.00;97003.59;5065168;28;20431;-72
2022/07/13 02:57:30;;;;;;;8.13;3.83;;;;;;;11.79;100.00;97023.50;5091578;28;20459;-72
2022/07/13 02:59:59;;;;;;;5.60;2.90;;;;;;;11.40;100.00;96989.31;5075213;28;20474;-72
2022/07/13 03:02:26;;;;;;;10.77;3.90;;;;;;;11.87;100.00;97021.13;5091429;28;20986;-72
2022/07/13 03:04:53;;;;;;;8.23;3.80;;;;;;;12.13;100.00;97013.88;5074863;28;20483;-72
2022/07/13 03:07:20;;;;;;;5.90;3.60;;;;;;;12.45;100.00;97019.66;5091290;28;20455;-72
2022/07/13 03:09:47;;;;;;;5.57;3.57;;;;;;;12.24;100.00;96985.91;5074755;28;20861;-72
2022/07/13 03:12:19;;;;;;;7.30;3.67;;;;;;;12.45;100.00;97012.47;5075608;28;20448;-72
2022/07/13 03:14:46;;;;;;;14.10;3.33;;;;;;;12.42;100.00;96998.00;5091379;28;20850;-72
2022/07/13 03:17:12;;;;;;;4.90;3.50;;;;;;;12.39;100.00;97006.56;5074441;28;20456;-72
2022/07/13 03:19:39;;;;;;;3.00;2.73;;;;;;;11.57;100.00;96977.88;5091355;28;20438;-72
2022/07/13 03:22:06;;;;;;;7.20;4.03;;;;;;;11.51;100.00;96978.06;5091114;28;20428;-72
2022/07/13 03:24:34;;;;;;;4.87;3.30;;;;;;;12.12;100.00;97010.44;5091179;28;20459;-72
2022/07/13 03:27:02;;;;;;;6.60;3.87;;;;;;;12.16;100.00;97017.78;5074266;28;20591;-72
2022/07/13 03:29:30;;;;;;;5.10;3.50;;;;;;;12.19;100.00;96999.34;5074244;28;20929;-72
2022/07/13 03:31:56;;;;;;;5.03;3.37;;;;;;;12.35;100.00;97021.56;5074161;28;20520;-72
2022/07/13 03:34:23;;;;;;;5.40;4.03;;;;;;;12.40;100.00;97002.03;5091154;28;20542;-72
2022/07/13 03:36:50;;;;;;;5.60;3.70;;;;;;;12.54;100.00;97025.66;5090783;28;20501;-72
2022/07/13 03:39:17;;;;;;;3.63;3.00;;;;;;;12.12;100.00;96972.56;5090883;28;20499;-72
2022/07/13 03:41:44;;;;;;;3.67;3.20;;;;;;;12.48;100.00;97003.09;5074362;28;20436;-73
2022/07/13 03:44:12;;;;;;;3.40;3.00;;;;;;;12.21;100.00;96983.91;5091161;28;20963;-72
2022/07/13 03:46:40;;;;;;;5.60;3.73;;;;;;;12.63;100.00;97016.56;5070134;28;20958;-73
2022/07/13 03:49:08;;;;;;;5.10;3.40;;;;;;;12.74;100.00;97011.66;5070742;28;20440;-72
2022/07/13 03:51:36;;;;;;;4.93;3.17;;;;;;;12.49;100.00;96967.50;5070527;28;20865;-72
2022/07/13 03:54:04;;;;;;;3.20;2.90;;;;;;;12.42;100.00;96991.91;5068064;28;20444;-72
2022/07/13 03:56:31;;;;;;;7.30;3.43;;;;;;;12.64;100.00;96996.13;5070477;28;20440;-73
2022/07/13 03:58:59;;;;;;;3.93;3.23;;;;;;;12.54;100.00;97021.16;5070547;28;20457;-73
2022/07/13 04:01:25;;;;;;;7.60;3.73;;;;;;;12.77;100.00;97020.84;5087449;28;20436;-72
2022/07/13 04:03:52;;;;;;;7.13;3.70;;;;;;;12.77;100.00;96983.72;5053920;28;20505;-72
2022/07/13 04:06:19;;;;;;;4.77;3.73;;;;;;;12.95;100.00;97009.00;5087188;28;20519;-72
2022/07/13 04:08:46;;;;;;;6.27;3.33;;;;;;;12.88;100.00;96990.97;5070107;28;20456;-72
2022/07/13 04:11:13;;;;;;;10.73;3.80;;;;;;;12.78;100.00;96972.75;5070345;28;20436;-72
2022/07/13 04:13:40;;;;;;;4.53;3.90;;;;;;;12.85;100.00;96975.69;5070054;28;20498;-72
2022/07/13 04:16:07;;;;;;;3.70;3.40;;;;;;;13.10;100.00;96975.81;5069914;28;20445;-72
2022/07/13 04:18:36;;;;;;;5.40;3.80;;;;;;;13.28;100.00;96987.84;5070183;28;20892;-72
2022/07/13 04:21:03;;;;;;;5.33;3.63;;;;;;;13.13;100.00;96969.84;5053576;28;20446;-72
2022/07/13 04:23:31;;;;;;;7.87;4.10;;;;;;;13.22;100.00;96989.94;5070223;28;20432;-72
2022/07/13 04:25:58;;;;;;;7.57;3.80;;;;;;;13.03;100.00;96989.59;5070816;28;20436;-75
2022/07/13 04:28:25;;;;;;;5.60;3.73;;;;;;;12.64;100.00;96973.03;5067428;28;20456;-74
2022/07/13 04:30:52;;;;;;;8.93;4.57;;;;;;;12.93;100.00;96988.09;5062834;28;20427;-75
2022/07/13 04:33:22;;;;;;;5.60;3.43;;;;;;;12.86;100.00;96941.97;5076914;28;20468;-75
2022/07/13 04:35:49;;;;;;;4.70;3.40;;;;;;;13.02;100.00;96959.59;5081435;28;20920;-75
2022/07/13 04:38:16;;;;;;;3.10;2.90;;;;;;;12.99;100.00;96968.22;5086143;28;20474;-75
2022/07/13 04:40:43;;;;;;;5.47;3.53;;;;;;;12.59;100.00;96961.84;5080135;28;20811;-75
2022/07/13 04:43:11;;;;;;;5.23;3.40;;;;;;;12.48;100.00;96984.53;5076245;28;20428;-75
2022/07/13 04:45:38;;;;;;;7.30;4.17;;;;;;;12.22;100.00;96934.31;5081307;28;20978;-75
2022/07/13 04:48:05;;;;;;;6.40;4.17;;;;;;;12.88;100.00;96975.03;5084365;28;21210;-75
2022/07/13 04:50:32;;;;;;;9.67;4.70;;;;;;;13.15;100.00;96964.97;5079828;28;20505;-76
2022/07/13 04:53:00;;;;;;;4.27;3.87;;;;;;;13.16;100.00;96939.97;5059064;28;20463;-75
2022/07/13 04:55:28;;;;;;;4.53;3.50;;;;;;;13.54;100.00;96967.09;5080346;28;20436;-75
2022/07/13 04:57:57;;;;;;;7.17;3.53;;;;;;;13.44;100.00;96962.22;5076861;28;20451;-75
2022/07/13 05:00:25;;;;;;;6.87;3.50;;;;;;;13.21;100.00;96934.47;5069558;28;20531;-76
2022/07/13 05:02:52;;;;;;;7.63;4.20;;;;;;;13.68;100.00;96969.47;5077179;28;20467;-75
2022/07/13 05:05:19;;;;;;;18.80;5.53;;;;;;;13.77;100.00;96985.31;5082319;28;20435;-75
2022/07/13 05:07:46;;;;;;;8.80;3.63;;;;;;;13.72;100.00;96985.50;5076547;28;20470;-75
2022/07/13 05:10:14;;;;;;;6.20;4.10;;;;;;;13.63;100.00;96953.75;5078393;28;20486;-75
2022/07/13 05:12:46;;;;;;;7.07;4.37;;;;;;;14.16;100.00;96992.66;5057356;28;20463;-76
2022/07/13 05:15:32;;;;;;;4.50;4.10;;;;;;;14.02;100.00;96952.34;5075511;28;20463;-75
2022/07/13 05:18:04;;;;;;;5.73;3.50;;;;;;;14.22;100.00;96984.44;5080571;28;20493;-75
2022/07/13 05:20:31;;;;;;;3.60;3.10;;;;;;;14.36;100.00;96979.56;5059302;28;20525;-75
2022/07/13 05:22:58;;;;;;;3.87;3.27;;;;;;;14.33;100.00;96991.66;5064196;28;20944;-76
2022/07/13 05:25:30;;;;;;;6.80;5.50;;;;;;;14.46;100.00;97000.44;5067689;28;20447;-76
2022/07/13 05:27:57;;;;;;;3.00;2.80;;;;;;;14.41;100.00;97011.25;5080056;28;20512;-76
2022/07/13 05:30:27;;;;;;;3.90;3.20;;;;;;;14.47;100.00;96960.19;5076669;28;20440;-76
2022/07/13 05:32:55;;;;;;;3.60;3.13;;;;;;;14.82;100.00;97009.44;5078562;28;20987;-75
2022/07/13 05:35:23;;;;;;;5.40;2.70;;;;;;;14.82;100.00;96988.94;5082976;28;20464;-75
2022/07/13 05:37:50;;;;;;;2.87;2.47;;;;;;;14.95;100.00;96989.66;5069408;28;20472;-75
2022/07/13 05:40:17;;;;;;;3.33;3.13;;;;;;;15.44;100.00;97008.13;5066605;28;20519;-74
2022/07/13 05:42:44;;;;;;;3.07;2.87;;;;;;;15.64;100.00;97004.53;5057911;28;20495;-75
2022/07/13 05:45:11;;;;;;;4.40;3.90;;;;;;;15.88;100.00;97003.56;5081452;28;20520;-75
2022/07/13 05:47:44;;;;;;;4.97;2.90;;;;;;;15.96;100.00;96995.41;5052894;28;20490;-74
2022/07/13 05:50:13;;;;;;;4.20;3.00;;;;;;;15.85;100.00;97015.72;5069615;28;20435;-74
2022/07/13 05:52:42;;;;;;;4.80;2.87;;;;;;;15.65;100.00;97019.41;5079829;28;20471;-74
2022/07/13 05:55:11;;;;;;;2.73;2.53;;;;;;;15.66;100.00;96999.63;5080477;28;20430;-74
2022/07/13 05:57:38;;;;;;;3.33;2.57;;;;;;;16.00;100.00;96992.06;5079575;28;20513;-74
2022/07/13 06:00:10;;;;;;;3.50;3.00;;;;;;;16.09;100.00;96980.09;5086876;28;20427;-74
2022/07/13 06:02:40;;;;;;;3.10;2.90;;;;;;;16.82;100.00;97014.16;5087874;28;20498;-74
2022/07/13 06:05:08;;;;;;;5.07;2.60;;;;;;;16.81;100.00;97017.19;5074410;28;20466;-74
2022/07/13 06:07:35;;;;;;;2.80;2.60;;;;;;;16.58;100.00;96992.25;5062426;28;20510;-75
2022/07/13 06:10:02;;;;;;;3.03;2.83;;;;;;;16.81;100.00;97007.28;5076679;28;20533;-74
2022/07/13 06:12:29;;;;;;;3.30;3.00;;;;;;;16.93;100.00;97008.28;5090968;28;20873;-75
2022/07/13 06:14:56;;;;;;;6.27;2.77;;;;;;;16.77;100.00;96989.63;5082966;28;20482;-75
2022/07/13 06:17:23;;;;;;;4.73;4.00;;;;;;;16.96;100.00;97020.94;5076392;28;20456;-75
2022/07/13 06:19:49;;;;;;;6.90;3.63;;;;;;;16.89;100.00;97021.56;5072564;28;20468;-75
2022/07/13 06:22:17;;;;;;;7.40;2.70;;;;;;;17.43;100.00;97024.19;5069163;28;20526;-74
2022/07/13 06:24:43;;;;;;;7.43;3.50;;;;;;;17.95;100.00;97038.91;5072533;28;20471;-74
2022/07/13 06:27:10;;;;;;;2.90;2.70;;;;;;;18.37;100.00;97035.38;5076681;28;20455;-74
2022/07/13 06:29:37;;;;;;;3.37;3.17;;;;;;;18.12;100.00;97036.88;5080947;28;20444;-75
2022/07/13 06:32:04;;;;;;;8.80;3.47;;;;;;;18.10;100.00;97042.59;5085846;28;20462;-75
2022/07/13 06:34:31;;;;;;;4.27;3.33;;;;;;;18.09;100.00;97019.63;5072082;28;20547;-74
2022/07/13 06:36:58;;;;;;;4.50;3.10;;;;;;;18.23;100.00;97059.25;5058534;28;20440;-75
2022/07/13 06:39:35;;;;;;;4.07;3.30;;;;;;;18.25;100.00;97059.66;5090840;28;20417;-75
2022/07/13 06:42:02;;;;;;;9.30;2.90;;;;;;;17.72;100.00;97049.56;5062441;28;20428;-75
2022/07/13 06:44:29;;;;;;;4.67;3.20;;;;;;;17.59;100.00;97023.31;5078816;28;20428;-75
2022/07/13 06:46:59;;;;;;;4.90;3.50;;;;;;;17.87;100.00;97055.19;5071752;28;20432;-75
2022/07/13 06:49:29;;;;;;;7.03;4.17;;;;;;;17.95;100.00;97054.97;5058610;28;20471;-75
2022/07/13 06:51:55;;;;;;;4.43;3.10;;;;;;;17.93;100.00;97027.03;5092203;28;20491;-75
2022/07/13 06:54:22;;;;;;;4.63;3.10;;;;;;;17.73;100.00;96994.19;5057443;28;20465;-75
2022/07/13 06:56:49;;;;;;;5.70;3.30;;;;;;;17.91;100.00;97016.69;5079394;28;20523;-75
2022/07/13 06:59:15;;;;;;;3.33;3.03;;;;;;;18.21;100.00;97038.19;5077419;28;20472;-75
2022/07/13 07:01:42;;;;;;;3.87;3.50;;;;;;;18.11;100.00;97012.00;5071907;28;20467;-75
2022/07/13 07:04:09;;;;;;;4.83;3.87;;;;;;;18.36;100.00;97043.78;5087620;28;20518;-75
2022/07/13 07:06:36;;;;;;;5.30;3.23;;;;;;;18.50;100.00;97031.38;5092211;28;20427;-75
2022/07/13 07:09:02;;;;;;;4.93;3.20;;;;;;;18.45;100.00;97023.66;5090544;28;20463;-75
2022/07/13 07:11:29;;;;;;;5.20;3.07;;;;;;;18.60;100.00;97022.72;5073010;28;20451;-74
2022/07/13 07:13:57;;;;;;;9.40;4.23;;;;;;;18.53;100.00;97019.16;5065701;28;20526;-74
2022/07/13 07:16:24;;;;;;;8.03;3.53;;;;;;;18.51;100.00;97006.13;5088775;28;20436;-74
2022/07/13 07:18:51;;;;;;;9.03;3.40;;;;;;;18.72;100.00;97016.41;5073693;28;20436;-75
2022/07/13 07:21:38;;;;;;;9.63;3.70;;;;;;;19.05;100.00;97022.97;5091841;28;20442;-75
2022/07/13 07:24:05;;;;;;;8.50;3.73;;;;;;;19.00;99.21;96970.44;5061034;28;20462;-75
2022/07/13 07:26:32;;;;;;;8.50;3.83;;;;;;;19.33;99.58;97014.47;5079249;28;20436;-75
2022/07/13 07:28:59;;;;;;;16.23;4.13;;;;;;;19.31;98.38;97012.16;5067879;28;21034;-75
2022/07/13 07:31:26;;;;;;;6.70;3.50;;;;;;;19.35;97.32;96972.75;5072402;28;20446;-75
2022/07/13 07:33:52;;;;;;;7.37;4.37;;;;;;;19.87;95.68;97016.59;5060395;28;21013;-75
2022/07/13 07:36:19;;;;;;;6.80;3.73;;;;;;;19.89;94.20;96984.00;5091237;28;21012;-75
2022/07/13 07:38:46;;;;;;;14.17;3.43;;;;;;;20.17;92.88;97013.03;5091059;28;20483;-75
2022/07/13 07:41:13;;;;;;;7.43;3.33;;;;;;;20.31;93.14;97000.50;5074179;28;20469;-75
2022/07/13 07:43:40;;;;;;;3.80;3.50;;;;;;;20.61;93.63;96978.81;5084191;28;20932;-75
2022/07/13 07:46:07;;;;;;;7.83;3.00;;;;;;;20.79;91.54;96989.66;5085664;28;20453;-75
2022/07/13 07:48:33;;;;;;;10.40;4.53;;;;;;;20.93;90.18;96975.50;5050637;28;20468;-75
2022/07/13 07:51:02;;;;;;;7.20;3.50;;;;;;;20.73;88.33;96975.06;5078827;28;20489;-75
2022/07/13 07:53:29;;;;;;;4.47;3.70;;;;;;;21.04;88.92;96989.00;5060844;28;20556;-75
2022/07/13 07:55:56;;;;;;;4.90;3.40;;;;;;;21.23;89.21;96977.94;5084113;28;20473;-75
2022/07/13 07:58:23;;;;;;;10.53;3.60;;;;;;;21.51;85.57;96996.13;5087281;28;20969;-72
2022/07/13 08:00:49;;;;;;;12.33;4.37;;;;;;;21.36;84.17;96951.47;5083945;28;20485;-73
2022/07/13 08:03:16;;;;;;;19.97;4.50;;;;;;;21.37;82.58;96956.50;5071758;28;20439;-73
2022/07/13 08:06:03;;;;;;;8.90;3.53;;;;;;;21.80;81.48;96978.88;5070477;28;20468;-73
2022/07/13 08:08:30;;;;;;;10.83;4.00;;;;;;;22.12;80.90;96996.97;5027146;28;20563;-73
2022/07/13 08:10:57;;;;;;;9.77;3.97;;;;;;;22.28;80.17;96983.13;5055719;28;20543;-73
2022/07/13 08:13:23;;;;;;;10.50;4.10;;;;;;;21.87;79.21;96980.00;5022201;28;20461;-73
2022/07/13 08:15:50;;;;;;;7.50;3.40;;;;;;;22.22;78.26;96974.66;5059743;28;20878;-74
2022/07/13 08:18:18;;;;;;;23.90;5.90;;;;;;;22.28;78.39;96981.19;5032710;28;20519;-73
2022/07/13 08:21:05;;;;;;;5.17;3.30;;;;;;;22.47;77.97;96976.56;5039986;28;20813;-74
2022/07/13 08:26:19;;;;;;;5.40;3.33;;;;;;;22.40;75.92;96961.16;5042592;28;20503;-74
2022/07/13 08:28:46;;;;;;;9.90;3.27;;;;;;;22.68;76.16;96952.22;5045703;28;20465;-73
2022/07/13 08:31:14;;;;;;;11.87;3.70;;;;;;;23.18;74.39;96997.94;5032411;28;20535;-73
2022/07/13 08:39:12;;;;;;;3.30;3.00;;;;;;;23.59;70.95;96998.91;5021281;28;20483;-74
2022/07/13 08:41:45;;;;;;;2.50;2.33;;;;;;;23.43;70.27;96955.41;5052379;28;20804;-75
2022/07/13 08:44:12;;;;;;;6.87;2.27;;;;;;;23.89;69.03;96978.66;5024794;28;20945;-75
2022/07/13 08:46:39;;;;;;;6.97;3.33;;;;;;;23.97;68.45;96961.22;5067247;28;20523;-75
2022/07/13 08:49:08;;;;;;;5.20;2.37;;;;;;;24.26;67.03;96985.31;5058527;28;20511;-75
2022/07/13 08:51:35;;;;;;;4.77;2.67;;;;;;;24.27;66.61;96984.13;5083264;28;20424;-75
2022/07/13 08:54:04;;;;;;;2.73;2.20;;;;;;;24.29;65.60;96987.97;5057837;28;20985;-75
2022/07/13 08:56:32;;;;;;;3.77;2.27;;;;;;;24.44;64.75;96975.91;5085366;28;20460;-74
2022/07/13 08:59:00;;;;;;;17.80;2.10;;;;;;;24.53;64.31;96963.84;5082194;28;20509;-75
2022/07/13 09:01:26;;;;;;;5.83;2.47;;;;;;;24.99;62.11;96977.63;5083654;28;20475;-75
2022/07/13 09:03:53;;;;;;;2.30;2.20;;;;;;;24.95;60.47;96962.59;5082892;28;20966;-75
2022/07/13 09:06:38;;;;;;;5.10;1.87;;;;;;;25.16;60.09;96983.25;5076322;28;20451;-75
2022/07/13 09:09:06;;;;;;;4.33;2.20;;;;;;;25.09;60.14;96984.09;5075999;28;20503;-75
2022/07/13 09:11:34;;;;;;;4.37;1.87;;;;;;;25.20;58.73;96990.16;5080376;28;20432;-75
2022/07/13 09:14:00;;;;;;;6.27;2.37;;;;;;;25.00;58.59;96986.53;5066353;28;20510;-75
2022/07/13 09:16:28;;;;;;;3.23;1.60;;;;;;;25.03;58.01;96983.78;5070657;28;20490;-75
2022/07/13 09:19:00;;;;;;;3.80;2.07;;;;;;;25.18;57.58;96956.56;5072364;28;20489;-74
2022/07/13 09:21:32;;;;;;;3.30;2.13;;;;;;;25.19;56.76;96944.53;5058261;28;20885;-74
2022/07/13 09:24:03;;;;;;;8.67;4.00;;;;;;;25.80;56.48;96993.25;5081110;28;20489;-75
2022/07/13 09:26:52;;;;;;;2.10;2.00;;;;;;;25.57;52.28;96993.94;5082125;28;20440;-75
2022/07/13 09:29:21;;;;;;;1.63;1.53;;;;;;;25.60;50.86;96972.22;5070771;28;20770;-75
2022/07/13 09:31:55;;;;;;;2.53;1.70;;;;;;;26.01;52.31;96994.84;5079836;28;20527;-75
2022/07/13 09:34:52;;;;;;;7.60;2.20;;;;;;;26.29;50.13;96997.09;5082937;28;20468;-75
2022/07/13 09:37:31;;;;;;;2.60;1.27;;;;;;;26.39;49.30;96982.63;5084928;28;20949;-75
2022/07/13 09:40:06;;;;;;;3.13;1.60;;;;;;;26.23;47.81;96979.78;5079797;28;20460;-75
2022/07/13 09:42:44;;;;;;;3.60;1.67;;;;;;;26.20;47.77;96981.38;5083710;28;20458;-75
2022/07/13 09:47:59;;;;;;;3.60;2.03;;;;;;;26.02;47.31;96991.72;5092922;28;20991;-74
2022/07/13 09:50:40;;;;;;;1.23;1.13;;;;;;;25.68;47.61;96951.22;5093049;28;20998;-74
2022/07/13 09:53:33;;;;;;;1.87;1.10;;;;;;;26.22;47.04;96998.00;5088667;28;21018;-74
2022/07/13 09:56:02;;;;;;;1.60;1.37;;;;;;;26.12;47.36;96981.91;5086247;28;20419;-74
2022/07/13 09:58:34;;;;;;;2.03;1.50;;;;;;;26.45;46.87;96948.44;5082520;28;20447;-74
2022/07/13 10:01:03;;;;;;;2.13;1.27;;;;;;;26.79;46.41;96955.53;5062279;28;20470;-74
2022/07/13 10:03:30;;;;;;;6.03;1.40;;;;;;;27.13;46.20;96962.66;5092751;28;20459;-75
2022/07/13 10:06:00;;;;;;;1.70;1.60;;;;;;;26.13;45.84;96937.34;5062432;28;20868;-75
2022/07/13 10:08:27;;;;;;;2.10;1.50;;;;;;;25.77;46.37;96915.47;5081924;28;20930;-74
2022/07/13 10:10:53;;;;;;;1.93;1.43;;;;;;;26.28;45.96;96973.88;5085832;28;20813;-74
2022/07/13 10:13:20;;;;;;;3.00;1.50;;;;;;;26.04;46.73;96945.25;5072159;28;20851;-74
2022/07/13 10:15:48;;;;;;;4.00;1.50;;;;;;;26.15;46.68;96967.50;5085850;28;20456;-74
2022/07/13 10:18:35;;;;;;;4.30;1.80;;;;;;;26.17;46.38;96941.50;5077949;28;20556;-75
2022/07/13 10:21:14;;;;;;;3.63;1.50;;;;;;;26.90;45.90;96985.19;5068720;28;20427;-75
2022/07/13 10:23:41;;;;;;;1.60;1.50;;;;;;;26.86;46.41;96965.50;5092438;28;20416;-75
2022/07/13 10:26:23;;;;;;;1.60;1.50;;;;;;;26.73;45.78;96968.09;5076751;28;20778;-74
2022/07/13 10:29:01;;;;;;;1.50;1.20;;;;;;;26.71;45.51;96906.09;5057957;28;20453;-75
2022/07/13 10:31:31;;;;;;;1.57;1.47;;;;;;;27.52;44.40;96961.84;5085004;28;21001;-75
2022/07/13 10:33:58;;;;;;;1.87;1.50;;;;;;;27.96;44.59;96946.84;5065649;28;20459;-74
2022/07/13 10:36:50;;;;;;;2.13;1.13;;;;;;;27.63;43.37;96979.41;5091552;28;20875;-74
2022/07/13 10:39:29;;;;;;;1.40;1.30;;;;;;;27.25;42.83;96970.94;5087815;28;20470;-74
2022/07/13 10:42:10;;;;;;;4.90;2.50;;;;;;;26.83;43.58;96980.66;5085228;28;20451;-74
2022/07/13 10:44:37;;;;;;;3.10;1.60;;;;;;;27.33;43.91;96983.16;5056899;28;20949;-74
2022/07/13 10:47:06;;;;;;;1.77;1.60;;;;;;;27.31;44.03;96971.97;5051743;28;20457;-74
2022/07/13 10:49:41;;;;;;;2.83;2.10;;;;;;;27.54;43.66;96975.75;5066183;28;20497;-74
2022/07/13 10:52:21;;;;;;;2.27;1.30;;;;;;;27.81;43.17;96981.00;5071696;28;20424;-74
2022/07/13 10:55:11;;;;;;;3.20;1.30;;;;;;;27.78;42.82;96974.47;5072786;28;20459;-74
2022/07/13 10:57:39;;;;;;;2.60;1.50;;;;;;;28.07;44.15;96985.41;5071291;28;20464;-74
2022/07/13 11:00:18;;;;;;;7.23;1.80;;;;;;;28.01;42.53;96964.59;5072811;28;20527;-74
2022/07/13 11:02:49;;;;;;;1.43;1.33;;;;;;;28.19;42.41;96965.69;5071239;28;20811;-75
2022/07/13 11:05:19;;;;;;;1.97;1.40;;;;;;;27.97;42.00;96972.84;5083439;28;20447;-75
2022/07/13 11:07:48;;;;;;;2.60;1.97;;;;;;;27.68;42.36;96968.06;5092767;28;20473;-75
2022/07/13 11:10:30;;;;;;;3.10;1.57;;;;;;;28.20;41.46;96983.53;5074669;28;20430;-75
2022/07/13 11:13:03;;;;;;;2.80;1.70;;;;;;;27.94;41.78;96974.47;5051181;28;20491;-75
2022/07/13 11:15:50;;;;;;;1.63;1.53;;;;;;;27.86;42.97;96964.94;5052330;28;20471;-75
2022/07/13 11:18:24;;;;;;;1.70;1.57;;;;;;;27.50;41.30;96964.19;5051238;28;20445;-75
2022/07/13 11:20:58;;;;;;;1.50;1.30;;;;;;;28.01;41.30;96954.47;5081544;28;20433;-75
2022/07/13 11:26:44;;;;;;;1.80;1.40;;;;;;;28.47;40.56;96952.59;5091508;28;20832;-75
2022/07/13 11:29:17;;;;;;;1.63;1.53;;;;;;;27.99;41.53;96945.97;5082914;28;20802;-75
2022/07/13 11:31:44;;;;;;;1.73;1.40;;;;;;;28.18;40.24;96926.09;5090492;28;20447;-75
2022/07/13 11:34:11;;;;;;;1.70;1.40;;;;;;;28.01;40.82;96924.56;5070663;28;20460;-75
2022/07/13 11:36:42;;;;;;;1.90;1.70;;;;;;;27.81;41.24;96940.97;5073980;28;20451;-75
2022/07/13 11:39:26;;;;;;;1.80;1.70;;;;;;;27.77;40.56;96926.69;5070849;28;20432;-75
2022/07/13 11:41:54;;;;;;;1.50;1.40;;;;;;;28.20;39.71;96931.88;5071999;28;20405;-74
2022/07/13 11:44:24;;;;;;;1.77;1.30;;;;;;;29.10;39.13;96933.72;5065211;28;20488;-74
2022/07/13 11:46:52;;;;;;;3.63;1.30;;;;;;;28.10;39.85;96930.16;5090681;28;20481;-74
2022/07/13 11:49:19;;;;;;;1.53;1.30;;;;;;;28.00;40.88;96920.31;5077701;28;21013;-74
2022/07/13 11:51:46;;;;;;;2.73;1.60;;;;;;;28.75;39.89;96902.03;5091577;28;20484;-75